createdAt,value
2023-01-29T00:00:45.302Z,-1.78
2023-01-29T00:04:06.817Z,-1.78
2023-01-29T00:07:08.398Z,-1.79
2023-01-29T00:10:11.055Z,-1.79
2023-01-29T00:13:13.607Z,-1.80
2023-01-29T00:16:15.166Z,-1.80
2023-01-29T00:19:16.804Z,-1.81
2023-01-29T00:22:18.448Z,-1.83
2023-01-29T00:25:20.053Z,-1.84
2023-01-29T00:28:21.837Z,-1.83
2023-01-29T00:31:24.779Z,-1.84
2023-01-29T00:34:26.352Z,-1.85
2023-01-29T00:37:28.000Z,-1.86
2023-01-29T00:40:29.823Z,-1.86
2023-01-29T00:43:31.376Z,-1.86
2023-01-29T00:46:32.956Z,-1.86
2023-01-29T00:49:34.528Z,-1.87
2023-01-29T00:52:36.551Z,-1.90
2023-01-29T00:55:37.981Z,-1.90
2023-01-29T00:58:39.672Z,-1.92
2023-01-29T01:01:41.467Z,-1.94
2023-01-29T01:04:43.597Z,-1.95
2023-01-29T01:07:48.809Z,-1.96
2023-01-29T01:10:59.159Z,-1.97
2023-01-29T01:14:00.879Z,-1.98
2023-01-29T01:17:02.657Z,-2.00
2023-01-29T01:20:04.485Z,-2.00
2023-01-29T01:23:06.131Z,-2.01
2023-01-29T01:26:11.027Z,-2.04
2023-01-29T01:29:12.693Z,-2.04
2023-01-29T01:32:14.317Z,-2.05
2023-01-29T01:35:16.155Z,-2.05
2023-01-29T01:38:17.666Z,-2.06
2023-01-29T01:41:21.718Z,-2.06
2023-01-29T01:44:52.796Z,-2.06
2023-01-29T01:48:05.146Z,-2.06
2023-01-29T01:51:06.779Z,-2.06
2023-01-29T01:54:16.715Z,-2.07
2023-01-29T01:57:22.324Z,-2.09
2023-01-29T02:00:25.546Z,-2.10
2023-01-29T02:03:28.302Z,-2.11
2023-01-29T02:06:30.697Z,-2.13
2023-01-29T02:09:35.893Z,-2.14
2023-01-29T02:12:38.329Z,-2.16
2023-01-29T02:15:40.048Z,-2.20
2023-01-29T02:18:41.613Z,-2.23
2023-01-29T02:21:57.652Z,-2.25
2023-01-29T02:25:08.469Z,-2.25
2023-01-29T02:28:26.395Z,-2.27
2023-01-29T02:31:31.068Z,-2.27
2023-01-29T02:35:04.612Z,-2.27
2023-01-29T02:38:18.537Z,-2.28
2023-01-29T02:41:32.191Z,-2.27
2023-01-29T02:44:44.192Z,-2.29
2023-01-29T02:47:51.421Z,-2.30
2023-01-29T02:50:59.155Z,-2.29
2023-01-29T02:54:08.064Z,-2.30
2023-01-29T02:57:22.204Z,-2.30
2023-01-29T03:00:26.934Z,-2.30
2023-01-29T03:03:36.151Z,-2.30
2023-01-29T03:07:01.347Z,-2.29
2023-01-29T03:10:06.904Z,-2.29
2023-01-29T03:13:22.120Z,-2.29
2023-01-29T03:16:29.901Z,-2.28
2023-01-29T03:19:43.271Z,-2.27
2023-01-29T03:22:50.138Z,-2.27
2023-01-29T03:25:53.233Z,-2.27
2023-01-29T03:28:54.821Z,-2.26
2023-01-29T03:31:57.764Z,-2.25
2023-01-29T03:35:03.666Z,-2.25
2023-01-29T03:38:10.105Z,-2.25
2023-01-29T03:41:20.845Z,-2.25
2023-01-29T03:44:49.089Z,-2.26
2023-01-29T03:48:09.379Z,-2.28
2023-01-29T03:51:33.735Z,-2.29
2023-01-29T03:54:45.713Z,-2.30
2023-01-29T03:57:57.962Z,-2.31
2023-01-29T04:01:07.180Z,-2.32
2023-01-29T04:04:15.608Z,-2.33
2023-01-29T04:07:21.212Z,-2.33
2023-01-29T04:10:25.601Z,-2.33
2023-01-29T04:13:27.500Z,-2.33
2023-01-29T04:16:29.811Z,-2.33
2023-01-29T04:19:31.464Z,-2.34
2023-01-29T04:22:35.591Z,-2.36
2023-01-29T04:25:47.569Z,-2.38
2023-01-29T04:28:49.032Z,-2.40
2023-01-29T04:32:04.510Z,-2.42
2023-01-29T04:35:33.223Z,-2.46
2023-01-29T04:38:47.701Z,-2.58
2023-01-29T04:41:59.986Z,-2.74
2023-01-29T04:45:07.792Z,-2.84
2023-01-29T04:48:43.826Z,-2.90
2023-01-29T04:52:00.683Z,-2.94
2023-01-29T04:55:23.813Z,-3.00
2023-01-29T04:58:28.460Z,-3.03
2023-01-29T05:01:31.443Z,-3.03
2023-01-29T05:04:34.419Z,-3.05
2023-01-29T05:07:37.752Z,-3.04
2023-01-29T05:10:39.463Z,-3.06
2023-01-29T05:13:42.227Z,-3.08
2023-01-29T05:16:47.816Z,-3.09
2023-01-29T05:19:49.464Z,-3.07
2023-01-29T05:22:51.086Z,-3.05
2023-01-29T05:25:52.736Z,-3.08
2023-01-29T05:28:56.172Z,-3.12
2023-01-29T05:31:58.069Z,-3.14
2023-01-29T05:34:59.731Z,-3.04
2023-01-29T05:38:01.385Z,-2.92
2023-01-29T05:41:02.976Z,-2.83
2023-01-29T05:44:05.000Z,-2.76
2023-01-29T05:47:06.565Z,-2.72
2023-01-29T05:50:08.967Z,-2.68
2023-01-29T05:53:10.560Z,-2.65
2023-01-29T05:56:12.137Z,-2.62
2023-01-29T05:59:15.500Z,-2.61
2023-01-29T06:02:17.081Z,-2.61
2023-01-29T06:05:18.771Z,-2.64
2023-01-29T06:08:20.367Z,-2.67
2023-01-29T06:11:22.312Z,-2.71
2023-01-29T06:14:23.949Z,-2.75
2023-01-29T06:17:25.543Z,-2.79
2023-01-29T06:20:27.235Z,-2.83
2023-01-29T06:23:29.283Z,-2.84
2023-01-29T06:26:30.819Z,-2.85
2023-01-29T06:29:32.493Z,-2.86
2023-01-29T06:32:34.345Z,-2.88
2023-01-29T06:35:35.861Z,-2.92
2023-01-29T06:38:37.683Z,-2.97
2023-01-29T06:41:39.218Z,-3.01
2023-01-29T06:44:40.708Z,-3.06
2023-01-29T06:47:42.363Z,-3.09
2023-01-29T06:50:44.047Z,-3.12
2023-01-29T06:53:46.636Z,-3.15
2023-01-29T06:56:48.526Z,-3.16
2023-01-29T06:59:50.200Z,-3.17
2023-01-29T07:02:51.865Z,-3.19
2023-01-29T07:05:53.512Z,-3.21
2023-01-29T07:08:55.431Z,-3.22
2023-01-29T07:11:57.010Z,-3.22
2023-01-29T07:14:58.594Z,-3.23
2023-01-29T07:18:01.978Z,-3.25
2023-01-29T07:21:07.055Z,-3.30
2023-01-29T07:24:09.033Z,-3.37
2023-01-29T07:27:10.623Z,-3.42
2023-01-29T07:30:12.772Z,-3.48
2023-01-29T07:33:14.523Z,-3.52
2023-01-29T07:36:16.020Z,-3.54
2023-01-29T07:39:17.517Z,-3.56
2023-01-29T07:42:19.204Z,-3.57
2023-01-29T07:45:20.926Z,-3.60
2023-01-29T07:48:22.544Z,-3.62
2023-01-29T07:51:24.112Z,-3.63
2023-01-29T07:54:25.754Z,-3.64
2023-01-29T07:57:27.500Z,-3.64
2023-01-29T08:00:30.958Z,-3.65
2023-01-29T08:03:32.786Z,-3.64
2023-01-29T08:06:34.262Z,-3.63
2023-01-29T08:09:36.444Z,-3.60
2023-01-29T08:12:38.118Z,-3.57
2023-01-29T08:15:45.936Z,-3.52
2023-01-29T08:18:47.598Z,-3.47
2023-01-29T08:21:49.278Z,-3.39
2023-01-29T08:24:54.367Z,-3.24
2023-01-29T08:28:01.662Z,-2.96
2023-01-29T08:31:03.343Z,-2.67
2023-01-29T08:34:04.900Z,-2.43
2023-01-29T08:37:06.511Z,-2.27
2023-01-29T08:40:08.963Z,-2.27
2023-01-29T08:43:12.136Z,-2.28
2023-01-29T08:46:13.758Z,-2.24
2023-01-29T08:49:15.296Z,-2.14
2023-01-29T08:52:17.094Z,-2.07
2023-01-29T08:55:19.006Z,-1.98
2023-01-29T08:58:20.983Z,-1.98
2023-01-29T09:01:22.474Z,-1.99
2023-01-29T09:04:24.448Z,-1.94
2023-01-29T09:07:25.955Z,-1.91
2023-01-29T09:10:27.765Z,-1.93
2023-01-29T09:13:29.424Z,-1.92
2023-01-29T09:16:31.342Z,-1.87
2023-01-29T09:19:32.914Z,-1.83
2023-01-29T09:22:35.626Z,-1.80
2023-01-29T09:25:37.761Z,-1.62
2023-01-29T09:28:39.604Z,-1.54
2023-01-29T09:31:41.175Z,-1.57
2023-01-29T09:34:42.819Z,-1.64
2023-01-29T09:37:48.055Z,-1.73
2023-01-29T09:40:53.316Z,-1.87
2023-01-29T09:44:14.056Z,-1.90
2023-01-29T09:47:17.294Z,-1.88
2023-01-29T09:50:38.619Z,-1.84
2023-01-29T09:53:58.167Z,-1.78
2023-01-29T09:57:00.703Z,-1.64
2023-01-29T10:00:02.544Z,-1.53
2023-01-29T10:03:24.208Z,-1.41
2023-01-29T10:06:47.590Z,-1.31
2023-01-29T10:10:15.568Z,-1.14
2023-01-29T10:13:46.451Z,-0.88
2023-01-29T10:17:17.490Z,-0.78
2023-01-29T10:20:46.485Z,-0.58
2023-01-29T10:23:51.238Z,-0.57
2023-01-29T10:26:53.796Z,-0.46
2023-01-29T10:29:56.163Z,-0.46
2023-01-29T10:33:02.511Z,0.09
2023-01-29T10:36:08.661Z,0.19
2023-01-29T10:39:18.432Z,-0.42
2023-01-29T10:42:31.756Z,-0.83
2023-01-29T10:45:43.843Z,-1.35
2023-01-29T10:49:05.210Z,-1.71
2023-01-29T10:52:27.198Z,-1.89
2023-01-29T10:55:34.526Z,-2.05
2023-01-29T10:58:41.617Z,-2.19
2023-01-29T11:01:43.370Z,-2.20
2023-01-29T11:04:45.219Z,-2.16
2023-01-29T11:07:48.359Z,-2.13
2023-01-29T11:11:04.661Z,-2.09
2023-01-29T11:14:13.708Z,-2.08
2023-01-29T11:17:20.504Z,-2.12
2023-01-29T11:20:27.504Z,-2.23
2023-01-29T11:23:33.747Z,-2.28
2023-01-29T11:26:38.692Z,-2.31
2023-01-29T11:29:45.575Z,-2.25
2023-01-29T11:32:52.647Z,-2.20
2023-01-29T11:35:54.313Z,-2.08
2023-01-29T11:39:14.025Z,-2.05
2023-01-29T11:42:22.816Z,-2.05
2023-01-29T11:45:28.752Z,-2.16
2023-01-29T11:48:43.927Z,-2.23
2023-01-29T11:51:52.602Z,-2.27
2023-01-29T11:54:59.757Z,-2.23
2023-01-29T11:58:01.255Z,-2.25
2023-01-29T12:01:03.152Z,-2.22
2023-01-29T12:04:10.146Z,-2.22
2023-01-29T12:07:14.390Z,-2.30
2023-01-29T12:10:41.353Z,-2.48
2023-01-29T12:13:43.034Z,-2.58
2023-01-29T12:17:06.835Z,-2.54
2023-01-29T12:20:16.002Z,-2.41
2023-01-29T12:23:42.198Z,-2.40
2023-01-29T12:26:50.976Z,-2.41
2023-01-29T12:29:59.802Z,-2.45
2023-01-29T12:33:11.304Z,-2.53
2023-01-29T12:36:19.744Z,-2.61
2023-01-29T12:39:21.901Z,-2.65
2023-01-29T12:42:24.550Z,-2.66
2023-01-29T12:45:27.937Z,-2.65
2023-01-29T12:48:33.848Z,-2.58
2023-01-29T12:51:40.043Z,-2.52
2023-01-29T12:54:48.313Z,-2.43
2023-01-29T12:57:52.853Z,-2.34
2023-01-29T13:00:56.519Z,-2.34
2023-01-29T13:04:15.094Z,-2.35
2023-01-29T13:07:20.831Z,-2.44
2023-01-29T13:10:28.471Z,-2.37
2023-01-29T13:13:41.111Z,-2.23
2023-01-29T13:16:46.163Z,-2.15
2023-01-29T13:19:51.235Z,-2.08
2023-01-29T13:22:54.923Z,-2.09
2023-01-29T13:25:57.091Z,-2.09
2023-01-29T13:28:58.760Z,-2.15
2023-01-29T13:32:02.490Z,-2.10
2023-01-29T13:35:13.280Z,-2.02
2023-01-29T13:38:25.591Z,-2.19
2023-01-29T13:41:42.560Z,-2.22
2023-01-29T13:44:48.740Z,-2.19
2023-01-29T13:47:51.775Z,-2.25
2023-01-29T13:51:00.652Z,-2.35
2023-01-29T13:54:06.715Z,-2.44
2023-01-29T13:57:37.187Z,-2.49
2023-01-29T14:00:38.773Z,-2.54
2023-01-29T14:04:03.341Z,-2.56
2023-01-29T14:07:43.629Z,-2.28
2023-01-29T14:10:45.245Z,-2.19
2023-01-29T14:13:48.626Z,-2.40
2023-01-29T14:16:50.280Z,-2.51
2023-01-29T14:20:18.879Z,-2.50
2023-01-29T14:23:34.820Z,-2.53
2023-01-29T14:26:39.258Z,-2.54
2023-01-29T14:29:41.688Z,-2.51
2023-01-29T14:32:47.226Z,-2.51
2023-01-29T14:35:52.730Z,-2.52
2023-01-29T14:38:54.515Z,-2.53
2023-01-29T14:41:55.977Z,-2.54
2023-01-29T14:45:20.076Z,-2.57
2023-01-29T14:48:39.471Z,-2.64
2023-01-29T14:51:43.429Z,-2.70
2023-01-29T14:54:46.411Z,-2.83
2023-01-29T14:57:49.141Z,-2.88
2023-01-29T15:00:54.367Z,-2.91
2023-01-29T15:04:07.367Z,-2.90
2023-01-29T15:07:09.450Z,-2.96
2023-01-29T15:10:22.851Z,-3.03
2023-01-29T15:13:37.465Z,-3.05
2023-01-29T15:16:51.430Z,-3.09
2023-01-29T15:19:53.056Z,-3.12
2023-01-29T15:22:54.587Z,-3.15
2023-01-29T15:26:01.186Z,-3.19
2023-01-29T15:29:04.691Z,-3.25
2023-01-29T15:32:07.052Z,-3.30
2023-01-29T15:35:11.879Z,-3.36
2023-01-29T15:38:22.102Z,-3.38
2023-01-29T15:41:23.735Z,-3.40
2023-01-29T15:44:25.319Z,-3.42
2023-01-29T15:47:31.330Z,-3.41
2023-01-29T15:50:35.950Z,-3.39
2023-01-29T15:53:42.421Z,-3.34
2023-01-29T15:56:47.280Z,-3.32
2023-01-29T15:59:49.206Z,-3.34
2023-01-29T16:02:50.987Z,-3.32
2023-01-29T16:05:52.880Z,-3.28
2023-01-29T16:08:54.416Z,-3.23
2023-01-29T16:11:58.396Z,-2.95
2023-01-29T16:15:02.464Z,-3.00
2023-01-29T16:18:25.703Z,-3.20
2023-01-29T16:21:35.159Z,-3.28
2023-01-29T16:24:37.236Z,-3.28
2023-01-29T16:27:38.886Z,-3.27
2023-01-29T16:30:40.575Z,-3.27
2023-01-29T16:33:43.895Z,-3.26
2023-01-29T16:36:46.801Z,-3.24
2023-01-29T16:39:49.534Z,-3.25
2023-01-29T16:43:06.327Z,-3.24
2023-01-29T16:46:23.527Z,-3.23
2023-01-29T16:49:31.405Z,-3.25
2023-01-29T16:52:34.482Z,-3.27
2023-01-29T16:55:41.413Z,-3.24
2023-01-29T16:58:49.964Z,-3.22
2023-01-29T17:01:51.514Z,-3.19
2023-01-29T17:04:57.492Z,-3.18
2023-01-29T17:07:59.831Z,-3.19
2023-01-29T17:11:01.739Z,-3.20
2023-01-29T17:14:05.407Z,-3.20
2023-01-29T17:17:15.086Z,-3.21
2023-01-29T17:20:17.031Z,-3.18
2023-01-29T17:23:19.396Z,-3.18
2023-01-29T17:26:21.237Z,-3.01
2023-01-29T17:29:28.203Z,-3.02
2023-01-29T17:32:44.041Z,-3.14
2023-01-29T17:35:46.916Z,-3.16
2023-01-29T17:38:48.607Z,-3.18
2023-01-29T17:41:52.832Z,-3.18
2023-01-29T17:44:54.504Z,-3.19
2023-01-29T17:47:56.210Z,-3.21
2023-01-29T17:51:02.287Z,-3.21
2023-01-29T17:54:04.067Z,-3.20
2023-01-29T17:57:05.732Z,-3.19
2023-01-29T18:00:16.014Z,-3.17
2023-01-29T18:03:18.276Z,-3.12
2023-01-29T18:06:29.778Z,-2.86
2023-01-29T18:09:31.374Z,-3.05
2023-01-29T18:12:32.980Z,-3.06
2023-01-29T18:15:34.694Z,-3.05
2023-01-29T18:18:36.311Z,-3.07
2023-01-29T18:21:37.916Z,-3.05
2023-01-29T18:24:40.201Z,-3.05
2023-01-29T18:27:41.948Z,-3.04
2023-01-29T18:30:47.240Z,-3.03
2023-01-29T18:33:49.362Z,-3.01
2023-01-29T18:36:50.935Z,-2.97
2023-01-29T18:39:52.563Z,-2.93
2023-01-29T18:42:54.156Z,-2.81
2023-01-29T18:45:59.001Z,-2.79
2023-01-29T18:49:00.848Z,-2.86
2023-01-29T18:52:02.561Z,-2.88
2023-01-29T18:55:04.458Z,-2.89
2023-01-29T18:58:28.567Z,-2.88
2023-01-29T19:01:27.581Z,-2.90
2023-01-29T19:04:29.289Z,-2.90
2023-01-29T19:07:31.052Z,-2.90
2023-01-29T19:10:33.467Z,-2.90
2023-01-29T19:13:36.411Z,-2.87
2023-01-29T19:16:38.279Z,-2.85
2023-01-29T19:19:39.715Z,-2.76
2023-01-29T19:22:41.407Z,-2.63
2023-01-29T19:25:42.997Z,-2.89
2023-01-29T19:28:44.769Z,-3.07
2023-01-29T19:31:47.078Z,-3.08
2023-01-29T19:34:48.714Z,-3.01
2023-01-29T19:37:50.282Z,-3.02
2023-01-29T19:40:52.189Z,-3.00
2023-01-29T19:43:53.874Z,-3.01
2023-01-29T19:46:55.431Z,-3.05
2023-01-29T19:49:57.016Z,-3.02
2023-01-29T19:52:58.606Z,-2.97
2023-01-29T19:56:18.709Z,-2.97
2023-01-29T19:59:20.723Z,-2.97
2023-01-29T20:02:22.338Z,-2.98
2023-01-29T20:05:24.013Z,-2.98
2023-01-29T20:08:25.603Z,-2.97
2023-01-29T20:11:27.245Z,-2.98
2023-01-29T20:14:28.862Z,-2.99
2023-01-29T20:17:30.529Z,-3.02
2023-01-29T20:20:32.861Z,-2.98
2023-01-29T20:23:38.099Z,-2.98
2023-01-29T20:26:40.658Z,-2.98
2023-01-29T20:29:42.188Z,-2.97
2023-01-29T20:32:43.844Z,-2.97
2023-01-29T20:35:45.468Z,-2.95
2023-01-29T20:38:47.097Z,-2.94
2023-01-29T20:41:48.808Z,-2.92
2023-01-29T20:44:50.350Z,-2.90
2023-01-29T20:47:51.923Z,-2.90
2023-01-29T20:50:54.068Z,-2.92
2023-01-29T20:53:55.675Z,-2.95
2023-01-29T20:56:57.375Z,-2.96
2023-01-29T20:59:59.034Z,-2.96
2023-01-29T21:03:00.611Z,-2.97
2023-01-29T21:06:02.167Z,-3.00
2023-01-29T21:09:03.860Z,-3.01
2023-01-29T21:12:05.654Z,-3.00
2023-01-29T21:15:07.939Z,-3.00
2023-01-29T21:18:09.984Z,-3.00
2023-01-29T21:21:11.567Z,-2.98
2023-01-29T21:24:13.238Z,-2.67
2023-01-29T21:27:15.311Z,-2.73
2023-01-29T21:30:17.777Z,-2.92
2023-01-29T21:33:19.619Z,-2.92
2023-01-29T21:36:21.356Z,-2.81
2023-01-29T21:39:23.177Z,-2.75
2023-01-29T21:42:24.632Z,-2.70
2023-01-29T21:45:26.330Z,-2.69
2023-01-29T21:48:27.861Z,-2.68
2023-01-29T21:51:29.627Z,-2.67
2023-01-29T21:54:31.335Z,-2.66
2023-01-29T21:57:33.271Z,-2.65
2023-01-29T22:00:35.181Z,-2.65
2023-01-29T22:03:36.829Z,-2.66
2023-01-29T22:06:38.438Z,-2.66
2023-01-29T22:09:40.176Z,-2.68
2023-01-29T22:12:41.994Z,-2.71
2023-01-29T22:15:43.675Z,-2.75
2023-01-29T22:18:45.220Z,-2.78
2023-01-29T22:21:46.787Z,-2.84
2023-01-29T22:24:48.440Z,-2.89
2023-01-29T22:27:50.002Z,-2.96
2023-01-29T22:30:51.631Z,-3.04
2023-01-29T22:33:53.346Z,-3.11
2023-01-29T22:36:54.951Z,-3.14
2023-01-29T22:39:56.541Z,-3.19
2023-01-29T22:42:58.092Z,-3.24
2023-01-29T22:45:59.786Z,-3.31
2023-01-29T22:49:01.579Z,-3.38
2023-01-29T22:52:03.200Z,-3.47
2023-01-29T22:55:12.460Z,-3.57
2023-01-29T22:58:14.056Z,-3.64
2023-01-29T23:01:18.828Z,-3.72
2023-01-29T23:04:20.712Z,-3.79
2023-01-29T23:07:22.444Z,-3.83
2023-01-29T23:10:24.086Z,-3.84
2023-01-29T23:13:25.705Z,-3.88
2023-01-29T23:16:28.295Z,-3.92
2023-01-29T23:19:29.961Z,-4.01
2023-01-29T23:22:31.579Z,-4.10
2023-01-29T23:25:33.189Z,-4.15
2023-01-29T23:28:34.776Z,-4.19
2023-01-29T23:31:36.514Z,-4.23
2023-01-29T23:34:38.197Z,-4.25
2023-01-29T23:37:39.748Z,-4.27
2023-01-29T23:40:41.338Z,-4.31
2023-01-29T23:43:42.983Z,-4.36
2023-01-29T23:46:44.682Z,-4.37
2023-01-29T23:49:46.167Z,-4.34
2023-01-29T23:52:47.885Z,-4.32
2023-01-29T23:55:57.587Z,-4.28
2023-01-29T23:58:59.252Z,-4.25
